createdAt,value
2018-07-20T00:01:20.690Z,45.16
2018-07-20T00:03:49.128Z,44.21
2018-07-20T00:06:16.690Z,44.37
2018-07-20T00:08:44.130Z,44.96
2018-07-20T00:11:11.557Z,44.13
2018-07-20T00:13:40.062Z,45.12
2018-07-20T00:16:07.522Z,44.49
2018-07-20T00:18:34.953Z,45.37
2018-07-20T00:21:02.421Z,45.42
2018-07-20T00:23:29.858Z,45.59
2018-07-20T00:25:58.405Z,44.97
2018-07-20T00:28:29.501Z,45.18
2018-07-20T00:30:59.042Z,45.54
2018-07-20T00:33:26.474Z,45.90
2018-07-20T00:35:53.961Z,45.04
2018-07-20T00:38:21.404Z,44.87
2018-07-20T00:40:48.817Z,44.22
2018-07-20T00:43:16.326Z,45.09
2018-07-20T00:45:43.738Z,44.86
2018-07-20T00:48:11.217Z,45.38
2018-07-20T00:50:38.678Z,44.29
2018-07-20T00:53:06.146Z,45.42
2018-07-20T00:55:33.558Z,44.38
2018-07-20T00:58:01.030Z,45.36
2018-07-20T01:00:28.490Z,44.71
2018-07-20T01:02:55.944Z,44.86
2018-07-20T01:05:23.413Z,44.57
2018-07-20T01:07:50.861Z,44.40
2018-07-20T01:10:18.300Z,44.51
2018-07-20T01:12:45.772Z,44.34
2018-07-20T01:15:13.268Z,43.73
2018-07-20T01:17:40.692Z,44.98
2018-07-20T01:20:08.125Z,43.88
2018-07-20T01:22:35.605Z,45.01
2018-07-20T01:25:03.045Z,44.12
2018-07-20T01:27:30.573Z,44.12
2018-07-20T01:29:57.970Z,44.73
2018-07-20T01:32:25.430Z,44.82
2018-07-20T01:34:52.873Z,44.06
2018-07-20T01:37:20.350Z,44.62
2018-07-20T01:39:47.828Z,44.05
2018-07-20T01:42:15.297Z,44.37
2018-07-20T01:44:42.700Z,44.80
2018-07-20T01:47:10.157Z,44.43
2018-07-20T01:49:38.337Z,44.32
2018-07-20T01:52:05.806Z,44.01
2018-07-20T01:54:33.146Z,44.91
2018-07-20T01:57:00.660Z,44.29
2018-07-20T01:59:28.091Z,44.77
2018-07-20T02:01:55.550Z,44.52
2018-07-20T02:04:22.977Z,44.10
2018-07-20T02:06:50.457Z,44.53
2018-07-20T02:09:17.908Z,44.30
2018-07-20T02:11:45.345Z,45.42
2018-07-20T02:14:12.815Z,45.61
2018-07-20T02:16:40.282Z,45.41
2018-07-20T02:19:08.070Z,45.26
2018-07-20T02:21:35.420Z,44.80
2018-07-20T02:24:02.863Z,44.83
2018-07-20T02:26:30.312Z,45.37
2018-07-20T02:28:57.777Z,45.16
2018-07-20T02:31:25.233Z,44.81
2018-07-20T02:33:52.674Z,45.58
2018-07-20T02:36:20.172Z,45.57
2018-07-20T02:38:47.606Z,45.51
2018-07-20T02:41:15.046Z,45.25
2018-07-20T02:43:42.518Z,45.80
2018-07-20T02:46:09.974Z,45.29
2018-07-20T02:48:37.425Z,44.52
2018-07-20T02:51:04.949Z,44.94
2018-07-20T02:53:32.378Z,45.12
2018-07-20T02:55:59.786Z,45.20
2018-07-20T02:58:27.263Z,45.22
2018-07-20T03:00:54.701Z,44.67
2018-07-20T03:03:22.201Z,44.99
2018-07-20T03:05:49.643Z,44.52
2018-07-20T03:08:17.078Z,44.31
2018-07-20T03:10:44.558Z,44.45
2018-07-20T03:13:12.022Z,44.92
2018-07-20T03:15:39.437Z,45.31
2018-07-20T03:18:06.922Z,44.64
2018-07-20T03:20:34.400Z,45.23
2018-07-20T03:23:02.205Z,45.35
2018-07-20T03:25:29.682Z,44.93
2018-07-20T03:27:57.145Z,44.76
2018-07-20T03:30:24.613Z,45.40
2018-07-20T03:32:52.129Z,45.15
2018-07-20T03:35:19.517Z,45.44
2018-07-20T03:37:47.061Z,45.09
2018-07-20T03:40:14.445Z,45.43
2018-07-20T03:42:41.915Z,45.91
2018-07-20T03:45:09.355Z,45.41
2018-07-20T03:47:36.791Z,45.59
2018-07-20T03:50:04.505Z,45.34
2018-07-20T03:52:31.905Z,45.97
2018-07-20T03:54:59.390Z,45.17
2018-07-20T03:57:26.830Z,46.12
2018-07-20T03:59:54.205Z,45.85
2018-07-20T04:02:21.644Z,46.31
2018-07-20T04:04:49.182Z,46.15
2018-07-20T04:07:16.617Z,46.33
2018-07-20T04:09:44.005Z,46.10
2018-07-20T04:12:11.734Z,45.42
2018-07-20T04:14:39.150Z,43.95
2018-07-20T04:17:06.678Z,43.56
2018-07-20T04:19:34.069Z,44.72
2018-07-20T04:22:01.510Z,43.76
2018-07-20T04:24:28.907Z,43.83
2018-07-20T04:26:56.355Z,44.59
2018-07-20T04:29:23.814Z,44.56
2018-07-20T04:31:51.311Z,44.62
2018-07-20T04:34:18.730Z,44.59
2018-07-20T04:36:46.177Z,44.49
2018-07-20T04:39:13.643Z,43.69
2018-07-20T04:41:41.143Z,44.20
2018-07-20T04:44:08.536Z,44.55
2018-07-20T04:46:35.997Z,43.92
2018-07-20T04:49:03.481Z,44.03
2018-07-20T04:51:30.926Z,43.76
2018-07-20T04:53:58.365Z,43.71
2018-07-20T04:56:25.854Z,43.68
2018-07-20T04:58:53.346Z,44.11
2018-07-20T05:01:20.779Z,44.01
2018-07-20T05:03:48.636Z,43.56
2018-07-20T05:06:16.078Z,44.21
2018-07-20T05:08:43.542Z,44.27
2018-07-20T05:11:10.977Z,43.66
2018-07-20T05:13:38.456Z,43.97
2018-07-20T05:16:05.811Z,43.46
2018-07-20T05:18:33.353Z,44.14
2018-07-20T05:21:00.842Z,43.58
2018-07-20T05:23:28.293Z,43.97
2018-07-20T05:25:55.723Z,43.58
2018-07-20T05:28:23.177Z,44.51
2018-07-20T05:30:50.666Z,43.23
2018-07-20T05:33:18.091Z,44.27
2018-07-20T05:35:45.588Z,44.40
2018-07-20T05:38:13.059Z,43.68
2018-07-20T05:40:40.492Z,43.47
2018-07-20T05:43:07.927Z,44.35
2018-07-20T05:45:35.403Z,43.52
2018-07-20T05:48:02.851Z,44.57
2018-07-20T05:50:30.281Z,43.34
2018-07-20T05:52:57.745Z,44.09
2018-07-20T05:55:26.089Z,44.33
2018-07-20T05:57:53.472Z,43.53
2018-07-20T06:00:20.950Z,43.42
2018-07-20T06:02:48.427Z,43.72
2018-07-20T06:05:15.837Z,44.38
2018-07-20T06:07:43.333Z,43.81
2018-07-20T06:10:10.813Z,43.70
2018-07-20T06:12:38.273Z,44.45
2018-07-20T06:15:06.122Z,43.27
2018-07-20T06:17:33.574Z,44.24
2018-07-20T06:20:01.017Z,43.53
2018-07-20T06:22:28.489Z,44.44
2018-07-20T06:24:55.922Z,43.65
2018-07-20T06:27:23.433Z,43.61
2018-07-20T06:29:50.856Z,44.68
2018-07-20T06:32:18.302Z,44.46
2018-07-20T06:34:45.794Z,43.47
2018-07-20T06:37:13.237Z,44.16
2018-07-20T06:46:38.234Z,43.74
2018-07-20T06:49:05.742Z,43.59
2018-07-20T06:51:33.209Z,44.43
2018-07-20T06:54:00.646Z,44.44
2018-07-20T06:56:28.076Z,43.71
2018-07-20T06:58:55.565Z,43.69
2018-07-20T07:01:22.983Z,44.16
2018-07-20T07:03:50.467Z,43.58
2018-07-20T07:06:17.928Z,44.10
2018-07-20T07:08:45.373Z,43.55
2018-07-20T07:11:12.847Z,43.87
2018-07-20T07:13:40.309Z,43.52
2018-07-20T07:16:07.751Z,43.92
2018-07-20T07:18:35.206Z,44.69
2018-07-20T07:21:02.681Z,43.83
2018-07-20T07:23:30.471Z,44.60
2018-07-20T07:25:58.066Z,44.79
2018-07-20T07:28:25.445Z,43.87
2018-07-20T07:30:52.978Z,44.27
2018-07-20T07:33:20.362Z,43.97
2018-07-20T07:35:47.820Z,43.90
2018-07-20T07:38:15.285Z,44.78
2018-07-20T07:40:42.733Z,44.59
2018-07-20T07:43:10.188Z,44.41
2018-07-20T07:45:37.662Z,44.81
2018-07-20T07:48:05.140Z,44.23
2018-07-20T07:50:32.561Z,44.09
2018-07-20T07:53:00.012Z,44.70
2018-07-20T07:55:27.465Z,44.27
2018-07-20T07:57:54.909Z,44.15
2018-07-20T08:00:22.438Z,44.24
2018-07-20T08:02:49.839Z,43.98
2018-07-20T08:05:17.281Z,43.71
2018-07-20T08:07:44.786Z,44.45
2018-07-20T08:10:12.245Z,43.53
2018-07-20T08:12:39.665Z,43.80
2018-07-20T08:15:07.117Z,44.35
2018-07-20T08:17:34.570Z,43.91
2018-07-20T08:20:02.045Z,43.98
2018-07-20T08:22:29.526Z,43.46
2018-07-20T08:24:56.941Z,43.76
2018-07-20T08:27:24.409Z,43.74
2018-07-20T08:29:51.858Z,44.12
2018-07-20T08:32:19.353Z,43.85
2018-07-20T08:34:46.769Z,43.59
2018-07-20T08:37:14.246Z,44.14
2018-07-20T08:39:41.675Z,44.33
2018-07-20T08:42:09.160Z,43.38
2018-07-20T08:44:36.589Z,43.75
2018-07-20T08:47:04.190Z,44.34
2018-07-20T08:49:31.730Z,43.69
2018-07-20T08:51:59.214Z,43.71
2018-07-20T08:54:26.729Z,43.63
2018-07-20T08:56:54.130Z,44.18
2018-07-20T08:59:21.937Z,43.25
2018-07-20T09:01:49.429Z,43.75
2018-07-20T09:04:16.849Z,43.23
2018-07-20T09:06:44.337Z,43.31
2018-07-20T09:09:11.794Z,44.36
2018-07-20T09:11:39.345Z,44.39
2018-07-20T09:14:06.721Z,44.21
2018-07-20T09:16:34.106Z,44.59
2018-07-20T09:19:01.543Z,44.72
2018-07-20T09:21:28.981Z,44.90
2018-07-20T09:23:56.455Z,44.33
2018-07-20T09:26:23.880Z,44.58
2018-07-20T09:28:51.350Z,44.58
2018-07-20T09:31:18.834Z,44.82
2018-07-20T09:33:46.266Z,44.81
2018-07-20T09:36:13.729Z,44.79
2018-07-20T09:38:41.179Z,43.82
2018-07-20T09:41:08.672Z,43.91
2018-07-20T09:43:36.142Z,44.89
2018-07-20T09:46:03.590Z,44.86
2018-07-20T09:48:31.024Z,43.74
2018-07-20T09:50:58.494Z,44.50
2018-07-20T09:53:25.959Z,44.06
2018-07-20T09:55:53.369Z,43.59
2018-07-20T09:58:20.891Z,43.44
2018-07-20T10:00:48.286Z,43.09
2018-07-20T10:03:15.796Z,43.66
2018-07-20T10:05:43.218Z,43.06
2018-07-20T10:08:10.674Z,43.86
2018-07-20T10:10:38.130Z,42.58
2018-07-20T10:13:05.663Z,43.75
2018-07-20T10:15:33.033Z,42.89
2018-07-20T10:18:00.498Z,43.57
2018-07-20T10:20:27.954Z,42.64
2018-07-20T10:22:55.423Z,42.57
2018-07-20T10:25:22.857Z,43.36
2018-07-20T10:27:50.304Z,43.30
2018-07-20T10:30:17.822Z,43.28
2018-07-20T10:32:45.240Z,41.85
2018-07-20T10:35:12.697Z,43.13
2018-07-20T10:37:40.142Z,42.62
2018-07-20T10:40:07.611Z,42.76
2018-07-20T10:42:35.417Z,42.65
2018-07-20T10:45:03.174Z,42.82
2018-07-20T10:47:30.590Z,42.53
2018-07-20T10:49:58.044Z,42.25
2018-07-20T10:52:25.513Z,42.46
2018-07-20T10:54:52.962Z,42.38
2018-07-20T10:57:20.469Z,42.21
2018-07-20T10:59:47.970Z,42.32
2018-07-20T11:02:15.413Z,42.57
2018-07-20T11:04:42.790Z,42.65
2018-07-20T11:07:10.302Z,42.41
2018-07-20T11:09:37.710Z,42.66
2018-07-20T11:12:08.665Z,41.89
2018-07-20T11:14:36.949Z,42.05
2018-07-20T11:17:04.464Z,42.49
2018-07-20T11:19:31.954Z,41.32
2018-07-20T11:21:59.426Z,41.25
2018-07-20T11:24:26.860Z,42.21
2018-07-20T11:26:54.308Z,41.20
2018-07-20T11:29:22.155Z,41.64
2018-07-20T11:31:49.789Z,41.28
2018-07-20T11:34:17.234Z,41.88
2018-07-20T11:36:44.798Z,42.13
2018-07-20T11:39:12.243Z,42.32
2018-07-20T11:41:39.725Z,41.46
2018-07-20T11:44:07.657Z,40.90
2018-07-20T11:46:35.232Z,41.10
2018-07-20T11:49:02.660Z,41.55
2018-07-20T11:51:30.127Z,40.77
2018-07-20T11:53:57.565Z,41.74
2018-07-20T11:56:25.719Z,41.58
2018-07-20T11:58:53.121Z,41.56
2018-07-20T12:01:20.608Z,41.73
2018-07-20T12:03:48.085Z,41.74
2018-07-20T12:06:16.350Z,41.80
2018-07-20T12:08:43.750Z,41.30
2018-07-20T12:11:11.228Z,40.87
2018-07-20T12:13:38.646Z,40.98
2018-07-20T12:16:06.138Z,40.76
2018-07-20T12:18:33.553Z,41.27
2018-07-20T12:21:01.020Z,40.41
2018-07-20T12:23:28.528Z,41.40
2018-07-20T12:25:56.022Z,40.98
2018-07-20T12:28:23.419Z,41.32
2018-07-20T12:30:50.863Z,40.88
2018-07-20T12:33:18.337Z,41.19
2018-07-20T12:35:45.791Z,41.28
2018-07-20T12:38:13.225Z,41.31
2018-07-20T12:40:40.742Z,40.28
2018-07-20T12:43:08.854Z,40.64
2018-07-20T12:45:36.381Z,40.81
2018-07-20T12:48:03.890Z,41.48
2018-07-20T12:50:31.377Z,41.17
2018-07-20T12:52:58.810Z,41.20
2018-07-20T12:55:26.251Z,41.04
2018-07-20T12:57:53.742Z,41.52
2018-07-20T13:00:21.150Z,41.26
2018-07-20T13:02:48.651Z,41.34
2018-07-20T13:05:16.066Z,41.17
2018-07-20T13:07:43.542Z,41.33
2018-07-20T13:10:11.026Z,41.18
2018-07-20T13:12:38.483Z,41.27
2018-07-20T13:15:05.910Z,41.05
2018-07-20T13:17:33.368Z,41.46
2018-07-20T13:20:00.833Z,40.64
2018-07-20T13:22:28.266Z,41.23
2018-07-20T13:24:55.848Z,40.52
2018-07-20T13:27:23.189Z,40.66
2018-07-20T13:29:50.674Z,40.50
2018-07-20T13:32:18.094Z,40.88
2018-07-20T13:34:45.602Z,41.30
2018-07-20T13:37:13.482Z,40.56
2018-07-20T13:39:40.891Z,41.14
2018-07-20T13:42:08.346Z,41.28
2018-07-20T13:44:35.819Z,40.72
2018-07-20T13:47:03.250Z,40.92
2018-07-20T13:49:30.821Z,40.72
2018-07-20T13:51:58.258Z,41.74
2018-07-20T13:54:25.656Z,40.69
2018-07-20T13:56:53.098Z,40.85
2018-07-20T13:59:20.691Z,41.34
2018-07-20T14:01:48.276Z,41.65
2018-07-20T14:04:16.702Z,41.35
2018-07-20T14:06:44.190Z,41.50
2018-07-20T14:09:11.606Z,40.56
2018-07-20T14:11:39.079Z,41.44
2018-07-20T14:14:06.810Z,41.40
2018-07-20T14:16:34.169Z,41.31
2018-07-20T14:19:01.646Z,40.63
2018-07-20T14:21:29.074Z,41.47
2018-07-20T14:23:56.573Z,41.24
2018-07-20T14:26:24.072Z,40.54
2018-07-20T14:28:51.466Z,41.47
2018-07-20T14:31:18.997Z,41.47
2018-07-20T14:33:46.386Z,40.94
2018-07-20T14:36:13.817Z,40.71
2018-07-20T14:38:41.321Z,40.78
2018-07-20T14:41:08.729Z,41.31
2018-07-20T14:43:37.605Z,41.20
2018-07-20T14:46:05.157Z,41.29
2018-07-20T14:48:32.573Z,40.89
2018-07-20T14:51:00.032Z,41.54
2018-07-20T14:53:27.471Z,41.08
2018-07-20T14:55:54.937Z,40.79
2018-07-20T14:58:22.418Z,41.72
2018-07-20T15:00:49.842Z,41.17
2018-07-20T15:03:17.296Z,41.42
2018-07-20T15:05:44.775Z,40.94
2018-07-20T15:08:12.206Z,40.86
2018-07-20T15:10:39.694Z,40.85
2018-07-20T15:13:07.120Z,41.28
2018-07-20T15:15:34.605Z,40.69
2018-07-20T15:18:02.086Z,41.49
2018-07-20T15:20:29.509Z,40.96
2018-07-20T15:22:56.974Z,41.33
2018-07-20T15:25:24.416Z,41.04
2018-07-20T15:27:51.880Z,40.62
2018-07-20T15:30:19.347Z,41.11
2018-07-20T15:32:46.817Z,41.67
2018-07-20T15:35:14.243Z,41.28
2018-07-20T15:37:41.703Z,41.54
2018-07-20T15:40:09.200Z,40.62
2018-07-20T15:42:36.705Z,40.96
2018-07-20T15:45:04.815Z,41.67
2018-07-20T15:47:32.298Z,41.22
2018-07-20T15:49:59.734Z,40.59
2018-07-20T15:54:54.682Z,40.84
2018-07-20T15:57:22.121Z,41.05
2018-07-20T15:59:49.598Z,41.72
2018-07-20T16:02:17.005Z,40.41
2018-07-20T16:04:45.477Z,41.38
2018-07-20T16:07:12.961Z,41.56
2018-07-20T16:09:40.374Z,41.55
2018-07-20T16:12:07.853Z,40.79
2018-07-20T16:14:35.315Z,41.21
2018-07-20T16:17:03.732Z,41.60
2018-07-20T16:19:31.057Z,41.50
2018-07-20T16:21:58.815Z,40.87
2018-07-20T16:24:26.190Z,41.48
2018-07-20T16:26:53.647Z,41.07
2018-07-20T16:29:21.078Z,40.42
2018-07-20T16:31:48.578Z,41.36
2018-07-20T16:34:16.026Z,40.23
2018-07-20T16:36:43.445Z,40.30
2018-07-20T16:39:10.993Z,40.47
2018-07-20T16:41:38.378Z,41.05
2018-07-20T16:44:05.806Z,41.40
2018-07-20T16:46:33.596Z,41.36
2018-07-20T16:49:00.930Z,41.59
2018-07-20T16:51:28.551Z,41.56
2018-07-20T16:53:56.269Z,40.75
2018-07-20T16:56:23.614Z,41.50
2018-07-20T16:58:51.069Z,40.64
2018-07-20T17:01:18.588Z,41.54
2018-07-20T17:03:46.038Z,41.42
2018-07-20T17:06:13.434Z,41.18
2018-07-20T17:08:40.947Z,41.09
2018-07-20T17:11:08.355Z,40.60
2018-07-20T17:13:35.831Z,40.25
2018-07-20T17:16:03.282Z,40.65
2018-07-20T17:18:30.722Z,41.06
2018-07-20T17:20:58.205Z,40.84
2018-07-20T17:23:25.622Z,40.73
2018-07-20T17:25:53.094Z,41.43
2018-07-20T17:28:20.588Z,41.26
2018-07-20T17:30:48.015Z,40.90
2018-07-20T17:33:15.481Z,41.44
2018-07-20T17:35:42.910Z,40.38
2018-07-20T17:38:10.394Z,41.17
2018-07-20T17:40:37.866Z,40.61
2018-07-20T17:43:05.334Z,41.07
2018-07-20T17:45:32.746Z,41.18
2018-07-20T17:48:00.237Z,41.16
2018-07-20T17:50:27.703Z,40.46
2018-07-20T17:52:55.222Z,41.10
2018-07-20T17:55:22.714Z,39.91
2018-07-20T17:57:50.274Z,40.55
2018-07-20T18:00:17.705Z,40.90
2018-07-20T18:02:45.178Z,40.90
2018-07-20T18:05:12.638Z,40.87
2018-07-20T18:07:40.083Z,40.38
2018-07-20T18:10:07.742Z,40.58
2018-07-20T18:12:35.181Z,40.72
2018-07-20T18:15:02.657Z,41.22
2018-07-20T18:17:30.134Z,41.14
2018-07-20T18:19:57.598Z,41.47
2018-07-20T18:22:25.032Z,41.83
2018-07-20T18:24:52.465Z,40.93
2018-07-20T18:27:20.138Z,40.93
2018-07-20T18:29:47.399Z,40.55
2018-07-20T18:32:14.873Z,40.54
2018-07-20T18:34:42.325Z,41.53
2018-07-20T18:37:09.749Z,41.18
2018-07-20T18:46:34.847Z,41.32
2018-07-20T18:49:02.269Z,41.65
2018-07-20T18:51:29.774Z,40.87
2018-07-20T18:53:57.210Z,41.48
2018-07-20T18:56:24.638Z,40.45
2018-07-20T18:58:52.123Z,41.59
2018-07-20T19:01:19.550Z,40.75
2018-07-20T19:03:47.015Z,41.48
2018-07-20T19:06:15.022Z,41.02
2018-07-20T19:08:42.538Z,41.76
2018-07-20T19:11:10.061Z,41.60
2018-07-20T19:13:37.434Z,40.59
2018-07-20T19:16:04.977Z,42.04
2018-07-20T19:18:32.365Z,40.73
2018-07-20T19:20:59.811Z,41.47
2018-07-20T19:23:27.304Z,41.18
2018-07-20T19:25:54.728Z,41.10
2018-07-20T19:28:22.210Z,41.77
2018-07-20T19:30:49.658Z,41.88
2018-07-20T19:33:17.105Z,41.70
2018-07-20T19:35:44.584Z,40.89
2018-07-20T19:38:12.001Z,40.76
2018-07-20T19:40:39.497Z,41.51
2018-07-20T19:43:08.302Z,42.09
2018-07-20T19:45:35.820Z,40.92
2018-07-20T19:48:04.522Z,41.41
2018-07-20T19:50:32.006Z,40.84
2018-07-20T19:52:59.421Z,40.79
2018-07-20T19:55:26.891Z,39.83
2018-07-20T19:57:54.354Z,39.90
2018-07-20T20:00:21.810Z,40.35
2018-07-20T20:02:49.270Z,40.46
2018-07-20T20:05:16.762Z,38.52
2018-07-20T20:07:44.194Z,39.85
2018-07-20T20:10:11.670Z,38.23
2018-07-20T20:12:39.153Z,38.16
2018-07-20T20:15:07.000Z,39.05
2018-07-20T20:17:34.438Z,38.76
2018-07-20T20:20:01.902Z,38.11
2018-07-20T20:22:29.337Z,37.50
2018-07-20T20:24:56.805Z,38.08
2018-07-20T20:27:24.296Z,37.32
2018-07-20T20:29:51.686Z,37.67
2018-07-20T20:32:19.161Z,37.65
2018-07-20T20:34:46.643Z,37.04
2018-07-20T20:37:16.652Z,36.47
2018-07-20T20:39:44.597Z,36.78
2018-07-20T20:42:16.466Z,36.74
2018-07-20T20:44:44.746Z,36.82
2018-07-20T20:47:12.574Z,36.01
2018-07-20T20:49:40.746Z,36.38
2018-07-20T20:52:08.373Z,36.07
2018-07-20T20:54:35.938Z,36.35
2018-07-20T20:57:03.789Z,36.12
2018-07-20T20:59:31.574Z,36.79
2018-07-20T21:01:59.107Z,36.25
2018-07-20T21:04:26.819Z,36.20
2018-07-20T21:06:54.405Z,36.47
2018-07-20T21:09:21.865Z,37.32
2018-07-20T21:11:50.123Z,37.66
2018-07-20T21:14:17.386Z,37.85
2018-07-20T21:16:46.377Z,38.66
2018-07-20T21:19:13.994Z,37.91
2018-07-20T21:21:41.706Z,38.32
2018-07-20T21:24:10.314Z,38.65
2018-07-20T21:26:38.101Z,39.42
2018-07-20T21:29:06.597Z,39.38
2018-07-20T21:31:34.027Z,39.11
2018-07-20T21:34:01.637Z,38.79
2018-07-20T21:36:31.578Z,39.51
2018-07-20T21:38:59.973Z,39.23
2018-07-20T21:41:40.382Z,39.31
2018-07-20T21:46:53.561Z,39.16
2018-07-20T21:49:21.040Z,40.16
2018-07-20T21:51:48.561Z,39.72
2018-07-20T21:54:15.951Z,40.80
2018-07-20T21:56:43.390Z,40.60
2018-07-20T21:59:10.842Z,40.93
2018-07-20T22:01:38.220Z,40.29
2018-07-20T22:04:05.661Z,40.43
2018-07-20T22:06:33.101Z,41.21
2018-07-20T22:09:00.649Z,41.07
2018-07-20T22:11:28.055Z,40.96
2018-07-20T22:13:55.478Z,40.82
2018-07-20T22:16:22.947Z,41.26
2018-07-20T22:18:50.410Z,40.40
2018-07-20T22:21:17.918Z,41.66
2018-07-20T22:23:45.332Z,40.59
2018-07-20T22:26:12.835Z,41.28
2018-07-20T22:28:40.247Z,41.60
2018-07-20T22:31:08.211Z,41.41
2018-07-20T22:33:35.561Z,41.32
2018-07-20T22:38:48.477Z,42.98
2018-07-20T22:41:15.945Z,42.19
2018-07-20T22:43:43.465Z,41.83
2018-07-20T22:46:10.856Z,42.00
2018-07-20T22:48:38.386Z,43.10
2018-07-20T22:51:05.926Z,43.13
2018-07-20T22:53:33.512Z,42.10
2018-07-20T22:56:00.882Z,42.95
2018-07-20T22:58:28.341Z,43.33
2018-07-20T23:00:55.814Z,42.41
2018-07-20T23:03:23.246Z,43.32
2018-07-20T23:05:50.777Z,43.51
2018-07-20T23:08:18.166Z,42.91
2018-07-20T23:10:45.668Z,43.58
2018-07-20T23:13:13.081Z,43.04
2018-07-20T23:15:40.618Z,43.98
2018-07-20T23:18:08.017Z,43.98
2018-07-20T23:20:35.507Z,43.84
2018-07-20T23:23:02.925Z,42.79
2018-07-20T23:25:30.373Z,43.37
2018-07-20T23:27:57.846Z,43.62
2018-07-20T23:30:25.302Z,43.51
2018-07-20T23:32:52.764Z,43.42
2018-07-20T23:35:20.227Z,43.50
2018-07-20T23:37:47.666Z,44.41
2018-07-20T23:40:15.105Z,44.49
2018-07-20T23:42:42.596Z,44.51
2018-07-20T23:45:10.032Z,43.38
2018-07-20T23:47:37.501Z,43.81
2018-07-20T23:50:04.978Z,43.62
2018-07-20T23:52:32.409Z,43.69
2018-07-20T23:54:59.891Z,44.51
2018-07-20T23:57:27.370Z,44.12
2018-07-20T23:59:54.782Z,43.97
